createdAt,value
2022-12-01T00:01:08.678Z,155.50
2022-12-01T00:03:35.612Z,151.23
2022-12-01T00:06:05.285Z,138.93
2022-12-01T00:08:33.450Z,135.80
2022-12-01T00:11:03.486Z,147.37
2022-12-01T00:13:30.472Z,147.07
2022-12-01T00:15:57.431Z,143.20
2022-12-01T00:18:24.349Z,148.60
2022-12-01T00:20:55.328Z,153.10
2022-12-01T00:23:23.165Z,137.30
2022-12-01T00:25:50.100Z,142.97
2022-12-01T00:28:17.027Z,165.63
2022-12-01T00:30:43.972Z,157.23
2022-12-01T00:33:10.880Z,137.27
2022-12-01T00:35:37.830Z,152.27
2022-12-01T00:38:04.753Z,155.40
2022-12-01T00:40:32.354Z,146.10
2022-12-01T00:42:59.316Z,128.47
2022-12-01T00:45:26.209Z,142.83
2022-12-01T00:47:53.505Z,132.13
2022-12-01T00:50:20.516Z,147.63
2022-12-01T00:52:47.462Z,154.87
2022-12-01T00:55:14.510Z,152.20
2022-12-01T00:57:42.598Z,163.53
2022-12-01T01:00:11.998Z,151.97
2022-12-01T01:02:39.831Z,169.40
2022-12-01T01:05:07.573Z,157.57
2022-12-01T01:07:34.567Z,169.67
2022-12-01T01:10:01.990Z,155.07
2022-12-01T01:12:29.281Z,141.40
2022-12-01T01:14:56.860Z,149.77
2022-12-01T01:17:23.893Z,148.93
2022-12-01T01:19:52.453Z,152.00
2022-12-01T01:22:19.565Z,151.43
2022-12-01T01:24:46.452Z,153.40
2022-12-01T01:27:13.172Z,165.53
2022-12-01T01:29:40.111Z,154.63
2022-12-01T01:32:07.857Z,170.17
2022-12-01T01:34:34.858Z,147.53
2022-12-01T01:37:01.789Z,173.40
2022-12-01T01:39:28.735Z,157.83
2022-12-01T01:41:55.671Z,149.83
2022-12-01T01:44:46.871Z,167.50
2022-12-01T01:47:15.851Z,165.40
2022-12-01T01:49:42.921Z,166.97
2022-12-01T01:52:10.117Z,152.93
2022-12-01T01:54:40.536Z,151.10
2022-12-01T01:57:09.070Z,147.73
2022-12-01T01:59:38.580Z,162.47
2022-12-01T02:02:07.786Z,158.20
2022-12-01T02:04:37.427Z,159.67
2022-12-01T02:07:04.650Z,178.70
2022-12-01T02:09:31.587Z,175.90
2022-12-01T02:12:10.774Z,158.17
2022-12-01T02:15:02.437Z,154.73
2022-12-01T02:17:41.565Z,153.33
2022-12-01T02:20:36.195Z,163.13
2022-12-01T02:23:32.257Z,153.97
2022-12-01T02:26:16.103Z,144.87
2022-12-01T02:29:06.302Z,160.37
2022-12-01T02:31:39.650Z,164.50
2022-12-01T02:34:15.964Z,150.10
2022-12-01T02:36:50.096Z,155.60
2022-12-01T02:39:21.810Z,178.33
2022-12-01T02:41:51.781Z,171.47
2022-12-01T02:44:25.364Z,158.60
2022-12-01T02:46:57.058Z,170.60
2022-12-01T02:49:30.297Z,159.13
2022-12-01T02:51:58.193Z,165.73
2022-12-01T02:54:28.959Z,148.77
2022-12-01T02:56:55.961Z,153.20
2022-12-01T02:59:22.933Z,171.03
2022-12-01T03:02:01.194Z,169.63
2022-12-01T03:04:45.425Z,173.37
2022-12-01T03:07:26.302Z,185.67
2022-12-01T03:10:03.881Z,173.83
2022-12-01T03:12:37.963Z,176.10
2022-12-01T03:15:10.006Z,166.40
2022-12-01T03:17:42.659Z,182.83
2022-12-01T03:20:14.194Z,168.93
2022-12-01T03:22:45.506Z,170.83
2022-12-01T03:25:16.636Z,166.23
2022-12-01T03:28:06.706Z,168.07
2022-12-01T03:30:34.898Z,182.23
2022-12-01T03:33:08.934Z,169.17
2022-12-01T03:35:41.182Z,171.20
2022-12-01T03:38:14.208Z,167.57
2022-12-01T03:40:41.786Z,177.10
2022-12-01T03:43:12.766Z,158.73
2022-12-01T03:45:47.169Z,176.93
2022-12-01T03:48:14.714Z,196.37
2022-12-01T03:50:49.956Z,163.23
2022-12-01T03:53:21.508Z,189.37
2022-12-01T03:55:55.794Z,180.43
2022-12-01T03:58:27.288Z,180.53
2022-12-01T04:00:56.886Z,181.63
2022-12-01T04:03:25.519Z,187.60
2022-12-01T04:05:52.512Z,190.63
2022-12-01T04:08:19.497Z,205.27
2022-12-01T04:10:46.656Z,191.10
2022-12-01T04:13:21.868Z,190.73
2022-12-01T04:15:49.378Z,183.03
2022-12-01T04:18:16.568Z,199.40
2022-12-01T04:20:45.377Z,194.30
2022-12-01T04:23:33.426Z,194.90
2022-12-01T04:26:00.463Z,189.70
2022-12-01T04:28:27.403Z,197.87
2022-12-01T04:30:54.415Z,181.93
2022-12-01T04:33:21.611Z,171.47
2022-12-01T04:35:57.577Z,198.27
2022-12-01T04:38:30.087Z,178.63
2022-12-01T04:40:57.693Z,173.47
2022-12-01T04:43:24.642Z,173.13
2022-12-01T04:45:51.563Z,172.07
2022-12-01T04:48:18.541Z,166.00
2022-12-01T04:50:45.471Z,168.07
2022-12-01T04:53:12.994Z,164.10
2022-12-01T04:55:40.207Z,180.87
2022-12-01T04:58:07.318Z,165.27
2022-12-01T05:00:34.478Z,166.47
2022-12-01T05:03:01.604Z,176.57
2022-12-01T05:05:28.549Z,182.13
2022-12-01T05:07:55.497Z,175.50
2022-12-01T05:10:22.870Z,162.47
2022-12-01T05:12:49.835Z,164.33
2022-12-01T05:15:17.308Z,177.00
2022-12-01T05:17:44.509Z,178.80
2022-12-01T05:20:36.097Z,173.37
2022-12-01T05:23:06.120Z,170.70
2022-12-01T05:25:33.980Z,165.83
2022-12-01T05:28:01.077Z,166.50
2022-12-01T05:30:28.936Z,169.97
2022-12-01T05:32:56.054Z,173.57
2022-12-01T05:35:23.066Z,177.30
2022-12-01T05:37:50.022Z,179.13
2022-12-01T05:40:17.063Z,168.93
2022-12-01T05:42:44.775Z,161.60
2022-12-01T05:45:11.588Z,155.80
2022-12-01T05:47:38.548Z,166.77
2022-12-01T05:50:06.588Z,155.57
2022-12-01T05:52:34.520Z,163.30
2022-12-01T05:55:01.476Z,162.80
2022-12-01T05:57:28.412Z,165.80
2022-12-01T05:59:55.739Z,153.23
2022-12-01T06:02:22.829Z,175.97
2022-12-01T06:04:49.814Z,172.50
2022-12-01T06:07:16.846Z,168.07
2022-12-01T06:09:45.635Z,179.50
2022-12-01T06:12:12.614Z,172.27
2022-12-01T06:14:41.625Z,150.77
2022-12-01T06:17:09.373Z,156.33
2022-12-01T06:19:36.424Z,162.00
2022-12-01T06:22:03.609Z,162.63
2022-12-01T06:24:33.422Z,159.43
2022-12-01T06:27:03.224Z,169.27
2022-12-01T06:29:30.169Z,174.67
2022-12-01T06:31:57.174Z,165.33
2022-12-01T06:34:24.559Z,180.20
2022-12-01T06:36:51.283Z,157.20
2022-12-01T06:39:18.065Z,172.53
2022-12-01T06:41:45.081Z,183.67
2022-12-01T06:44:12.034Z,161.80
2022-12-01T06:46:39.163Z,175.80
2022-12-01T06:49:06.169Z,164.47
2022-12-01T06:51:33.749Z,169.87
2022-12-01T06:54:05.211Z,181.53
2022-12-01T06:56:32.672Z,188.47
2022-12-01T06:59:00.080Z,180.67
2022-12-01T07:01:27.660Z,197.57
2022-12-01T07:03:54.648Z,198.50
2022-12-01T07:06:21.670Z,220.53
2022-12-01T07:08:49.083Z,195.50
2022-12-01T07:11:15.937Z,194.27
2022-12-01T07:13:45.245Z,223.17
2022-12-01T07:16:12.771Z,228.10
2022-12-01T07:18:40.146Z,227.60
2022-12-01T07:21:09.881Z,213.23
2022-12-01T07:23:36.808Z,210.83
2022-12-01T07:26:06.830Z,223.30
2022-12-01T07:28:34.149Z,211.30
2022-12-01T07:31:03.633Z,212.70
2022-12-01T07:33:31.126Z,228.00
2022-12-01T07:35:58.265Z,211.77
2022-12-01T07:38:25.289Z,206.60
2022-12-01T07:40:52.600Z,227.37
2022-12-01T07:43:19.970Z,236.83
2022-12-01T07:45:47.101Z,238.53
2022-12-01T07:48:14.048Z,232.50
2022-12-01T07:50:41.058Z,250.00
2022-12-01T07:53:08.018Z,248.67
2022-12-01T07:55:37.531Z,248.63
2022-12-01T07:58:05.519Z,257.40
2022-12-01T08:00:33.265Z,245.10
2022-12-01T08:03:00.336Z,260.80
2022-12-01T08:05:27.739Z,244.70
2022-12-01T08:07:54.763Z,251.17
2022-12-01T08:10:21.744Z,239.97
2022-12-01T08:12:48.762Z,223.77
2022-12-01T08:15:15.828Z,225.23
2022-12-01T08:17:43.215Z,227.90
2022-12-01T08:20:11.519Z,225.70
2022-12-01T08:22:38.522Z,232.03
2022-12-01T08:25:06.213Z,229.93
2022-12-01T08:27:35.854Z,252.83
2022-12-01T08:30:05.523Z,235.50
2022-12-01T08:32:32.965Z,233.80
2022-12-01T08:35:01.176Z,228.80
2022-12-01T08:37:28.594Z,225.47
2022-12-01T08:39:55.801Z,246.20
2022-12-01T08:42:23.486Z,226.90
2022-12-01T08:44:50.540Z,218.97
2022-12-01T08:47:19.005Z,221.50
2022-12-01T08:49:46.458Z,237.10
2022-12-01T08:52:14.507Z,235.97
2022-12-01T08:54:41.489Z,229.10
2022-12-01T08:57:08.731Z,240.53
2022-12-01T08:59:35.807Z,229.57
2022-12-01T09:02:06.922Z,244.03
2022-12-01T09:04:34.324Z,221.57
2022-12-01T09:07:01.143Z,232.53
2022-12-01T09:09:31.625Z,228.70
2022-12-01T09:11:58.648Z,230.93
2022-12-01T09:14:27.653Z,241.33
2022-12-01T09:16:54.658Z,232.17
2022-12-01T09:19:24.695Z,231.63
2022-12-01T09:21:51.755Z,237.10
2022-12-01T09:24:18.908Z,245.43
2022-12-01T09:26:46.513Z,238.70
2022-12-01T09:29:15.188Z,234.73
2022-12-01T09:31:43.749Z,235.17
2022-12-01T09:34:13.527Z,227.10
2022-12-01T09:36:40.716Z,222.27
2022-12-01T09:39:08.438Z,236.30
2022-12-01T09:41:39.471Z,224.93
2022-12-01T09:44:15.093Z,228.27
2022-12-01T09:46:46.673Z,199.17
2022-12-01T09:49:17.443Z,197.30
2022-12-01T09:51:44.675Z,202.30
2022-12-01T09:54:13.629Z,189.57
2022-12-01T09:56:45.229Z,168.47
2022-12-01T09:59:21.878Z,175.83
2022-12-01T10:01:54.709Z,163.53
2022-12-01T10:04:27.909Z,182.10
2022-12-01T10:06:59.097Z,170.50
2022-12-01T10:09:32.183Z,175.93
2022-12-01T10:12:06.086Z,158.70
2022-12-01T10:14:36.268Z,177.43
2022-12-01T10:17:21.852Z,176.90
2022-12-01T10:19:54.966Z,158.87
2022-12-01T10:23:04.212Z,173.63
2022-12-01T10:25:39.250Z,158.10
2022-12-01T10:28:24.023Z,172.20
2022-12-01T10:30:52.920Z,147.70
2022-12-01T10:33:24.604Z,160.37
2022-12-01T10:35:51.889Z,163.77
2022-12-01T10:38:25.651Z,146.87
2022-12-01T10:40:53.963Z,144.90
2022-12-01T10:43:32.702Z,143.40
2022-12-01T10:46:08.705Z,153.30
2022-12-01T10:48:53.515Z,146.03
2022-12-01T10:51:24.762Z,163.40
2022-12-01T10:53:58.707Z,156.17
2022-12-01T10:56:27.299Z,146.90
2022-12-01T10:58:56.553Z,158.13
2022-12-01T11:01:26.339Z,165.33
2022-12-01T11:03:56.378Z,155.03
2022-12-01T11:06:27.530Z,158.77
2022-12-01T11:08:57.503Z,149.57
2022-12-01T11:11:30.607Z,149.90
2022-12-01T11:14:00.939Z,146.87
2022-12-01T11:16:38.442Z,153.90
2022-12-01T11:19:20.465Z,151.80
2022-12-01T11:21:52.927Z,154.07
2022-12-01T11:24:29.164Z,140.50
2022-12-01T11:26:57.322Z,147.20
2022-12-01T11:29:31.754Z,149.30
2022-12-01T11:32:00.424Z,154.83
2022-12-01T11:34:30.211Z,154.27
2022-12-01T11:37:00.249Z,154.90
2022-12-01T11:39:31.307Z,145.33
2022-12-01T11:42:00.119Z,141.20
2022-12-01T11:44:50.222Z,159.93
2022-12-01T11:47:23.631Z,142.47
2022-12-01T11:49:56.846Z,145.13
2022-12-01T11:52:30.152Z,136.77
2022-12-01T11:55:10.049Z,139.47
2022-12-01T11:57:40.125Z,134.80
2022-12-01T12:00:13.847Z,139.13
2022-12-01T12:02:48.930Z,135.23
2022-12-01T12:05:42.505Z,133.27
2022-12-01T12:08:20.543Z,129.77
2022-12-01T12:10:55.533Z,121.57
2022-12-01T12:13:42.065Z,139.20
2022-12-01T12:16:17.711Z,121.40
2022-12-01T12:18:59.844Z,113.43
2022-12-01T12:21:33.195Z,113.30
2022-12-01T12:24:25.069Z,113.43
2022-12-01T12:26:59.942Z,123.63
2022-12-01T12:29:41.143Z,111.83
2022-12-01T12:32:26.656Z,109.37
2022-12-01T12:35:03.522Z,125.13
2022-12-01T12:37:39.924Z,116.40
2022-12-01T12:40:29.752Z,105.60
2022-12-01T12:43:17.765Z,122.47
2022-12-01T12:45:52.910Z,118.53
2022-12-01T12:48:28.565Z,119.60
2022-12-01T12:51:07.622Z,119.47
2022-12-01T12:53:41.633Z,110.07
2022-12-01T12:56:14.414Z,115.33
2022-12-01T12:58:49.294Z,108.37
2022-12-01T13:01:20.930Z,114.50
2022-12-01T13:03:55.195Z,116.83
2022-12-01T13:06:27.666Z,118.30
2022-12-01T13:09:04.145Z,109.47
2022-12-01T13:11:41.506Z,118.83
2022-12-01T13:14:18.114Z,125.87
2022-12-01T13:16:49.968Z,116.03
2022-12-01T13:19:22.268Z,122.87
2022-12-01T13:21:52.375Z,118.00
2022-12-01T13:24:23.669Z,117.70
2022-12-01T13:26:54.325Z,115.67
2022-12-01T13:29:24.613Z,117.27
2022-12-01T13:31:53.908Z,119.70
2022-12-01T13:34:25.055Z,114.83
2022-12-01T13:36:55.409Z,116.33
2022-12-01T13:39:24.654Z,106.13
2022-12-01T13:42:00.740Z,113.47
2022-12-01T13:44:33.279Z,111.17
2022-12-01T13:47:04.393Z,127.13
2022-12-01T13:49:39.858Z,117.00
2022-12-01T13:52:34.515Z,111.57
2022-12-01T13:55:25.492Z,116.80
2022-12-01T13:58:23.820Z,107.50
2022-12-01T14:00:50.904Z,106.93
2022-12-01T14:03:40.432Z,111.10
2022-12-01T14:06:19.851Z,110.23
2022-12-01T14:08:49.860Z,128.87
2022-12-01T14:11:21.409Z,111.53
2022-12-01T14:13:52.760Z,121.80
2022-12-01T14:16:21.708Z,113.13
2022-12-01T14:18:57.439Z,109.93
2022-12-01T14:21:46.395Z,114.50
2022-12-01T14:24:27.085Z,106.80
2022-12-01T14:26:54.838Z,109.07
2022-12-01T14:29:28.637Z,109.93
2022-12-01T14:32:25.735Z,117.77
2022-12-01T14:34:59.362Z,120.90
2022-12-01T14:37:33.153Z,113.80
2022-12-01T14:40:08.431Z,106.70
2022-12-01T14:42:58.081Z,118.20
2022-12-01T14:45:31.773Z,118.20
2022-12-01T14:48:02.208Z,116.73
2022-12-01T14:50:40.874Z,113.50
2022-12-01T14:53:24.841Z,111.73
2022-12-01T14:55:56.271Z,118.00
2022-12-01T14:58:25.919Z,120.53
2022-12-01T15:01:06.480Z,114.33
2022-12-01T15:03:40.640Z,105.23
2022-12-01T15:06:08.445Z,112.97
2022-12-01T15:08:43.608Z,108.50
2022-12-01T15:11:22.693Z,113.70
2022-12-01T15:13:51.697Z,101.77
2022-12-01T15:16:20.799Z,106.33
2022-12-01T15:18:47.838Z,113.23
2022-12-01T15:21:17.723Z,114.77
2022-12-01T15:23:56.418Z,124.50
2022-12-01T15:26:25.397Z,107.70
2022-12-01T15:29:04.657Z,102.93
2022-12-01T15:31:32.046Z,117.83
2022-12-01T15:33:59.351Z,103.43
2022-12-01T15:36:26.377Z,114.13
2022-12-01T15:38:53.984Z,116.90
2022-12-01T15:41:31.020Z,107.13
2022-12-01T15:44:01.242Z,108.67
2022-12-01T15:46:29.201Z,113.50
2022-12-01T15:49:14.685Z,110.17
2022-12-01T15:51:41.728Z,124.20
2022-12-01T15:54:18.088Z,122.77
2022-12-01T15:56:45.158Z,121.83
2022-12-01T15:59:25.747Z,112.17
2022-12-01T16:01:52.782Z,124.17
2022-12-01T16:04:22.022Z,113.80
2022-12-01T16:06:56.850Z,116.83
2022-12-01T16:09:32.290Z,122.10
2022-12-01T16:12:24.177Z,126.23
2022-12-01T16:15:06.217Z,117.23
2022-12-01T16:17:42.290Z,115.50
2022-12-01T16:20:24.092Z,130.00
2022-12-01T16:22:56.723Z,119.47
2022-12-01T16:25:32.353Z,129.90
2022-12-01T16:28:00.470Z,125.43
2022-12-01T16:30:34.285Z,109.83
2022-12-01T16:33:02.882Z,124.27
2022-12-01T16:35:32.896Z,131.37
2022-12-01T16:38:03.664Z,131.67
2022-12-01T16:40:30.400Z,116.40
2022-12-01T16:42:57.340Z,118.90
2022-12-01T16:45:25.975Z,127.77
2022-12-01T16:47:53.256Z,120.00
2022-12-01T16:50:23.277Z,123.07
2022-12-01T16:52:50.326Z,136.10
2022-12-01T16:55:26.952Z,141.30
2022-12-01T16:57:54.693Z,135.80
2022-12-01T17:00:22.098Z,123.87
2022-12-01T17:02:49.190Z,120.23
2022-12-01T17:05:16.679Z,120.30
2022-12-01T17:07:43.794Z,124.00
2022-12-01T17:10:11.716Z,128.50
2022-12-01T17:12:38.731Z,122.30
2022-12-01T17:15:05.989Z,117.60
2022-12-01T17:17:32.990Z,122.40
2022-12-01T17:20:00.005Z,117.10
2022-12-01T17:22:27.378Z,133.37
2022-12-01T17:24:54.849Z,135.87
2022-12-01T17:27:21.690Z,129.13
2022-12-01T17:29:48.794Z,122.73
2022-12-01T17:32:16.863Z,127.37
2022-12-01T17:34:44.872Z,128.23
2022-12-01T17:37:16.110Z,131.10
2022-12-01T17:39:46.939Z,125.90
2022-12-01T17:42:13.904Z,132.13
2022-12-01T17:44:40.886Z,134.17
2022-12-01T17:47:11.399Z,113.20
2022-12-01T17:49:38.472Z,134.00
2022-12-01T17:52:06.072Z,124.03
2022-12-01T17:54:33.422Z,132.10
2022-12-01T17:57:00.969Z,125.00
2022-12-01T17:59:27.860Z,125.27
2022-12-01T18:01:54.874Z,134.37
2022-12-01T18:04:21.705Z,140.07
2022-12-01T18:06:53.756Z,145.60
2022-12-01T18:09:21.479Z,134.70
2022-12-01T18:11:49.719Z,120.10
2022-12-01T18:14:19.630Z,128.03
2022-12-01T18:16:46.713Z,115.17
2022-12-01T18:19:13.814Z,114.30
2022-12-01T18:21:40.903Z,114.87
2022-12-01T18:24:09.507Z,120.60
2022-12-01T18:26:37.940Z,107.73
2022-12-01T18:29:06.987Z,115.27
2022-12-01T18:31:34.811Z,113.73
2022-12-01T18:34:03.716Z,118.23
2022-12-01T18:36:32.263Z,119.27
2022-12-01T18:39:00.738Z,128.83
2022-12-01T18:41:27.758Z,114.87
2022-12-01T18:43:54.859Z,118.37
2022-12-01T18:46:22.169Z,127.50
2022-12-01T18:48:51.287Z,113.63
2022-12-01T18:51:18.765Z,109.83
2022-12-01T18:53:45.969Z,108.30
2022-12-01T18:56:15.074Z,122.73
2022-12-01T18:58:42.523Z,120.10
2022-12-01T19:01:19.022Z,104.20
2022-12-01T19:03:45.995Z,128.00
2022-12-01T19:06:13.777Z,126.50
2022-12-01T19:08:40.754Z,119.83
2022-12-01T19:11:07.761Z,112.70
2022-12-01T19:13:34.794Z,113.57
2022-12-01T19:16:06.148Z,123.80
2022-12-01T19:18:33.032Z,115.93
2022-12-01T19:21:01.160Z,112.60
2022-12-01T19:23:28.552Z,110.13
2022-12-01T19:25:55.423Z,124.93
2022-12-01T19:28:22.593Z,106.43
2022-12-01T19:30:49.598Z,119.63
2022-12-01T19:33:16.582Z,123.20
2022-12-01T19:35:43.518Z,110.93
2022-12-01T19:38:10.663Z,107.30
2022-12-01T19:40:38.820Z,112.97
2022-12-01T19:43:06.057Z,115.57
2022-12-01T19:45:35.210Z,109.37
2022-12-01T19:48:02.487Z,111.80
2022-12-01T19:50:30.055Z,111.67
2022-12-01T19:52:57.227Z,112.53
2022-12-01T19:55:24.509Z,108.77
2022-12-01T19:57:52.952Z,110.83
2022-12-01T20:00:21.200Z,99.73
2022-12-01T20:02:48.257Z,108.87
2022-12-01T20:05:15.417Z,109.23
2022-12-01T20:07:42.873Z,100.53
2022-12-01T20:10:10.687Z,98.70
2022-12-01T20:12:37.685Z,89.10
2022-12-01T20:15:07.935Z,94.27
2022-12-01T20:17:35.805Z,98.47
2022-12-01T20:20:02.807Z,101.80
2022-12-01T20:22:31.345Z,106.00
2022-12-01T20:24:58.430Z,98.73
2022-12-01T20:27:25.777Z,99.70
2022-12-01T20:29:52.423Z,97.47
2022-12-01T20:32:23.459Z,106.37
2022-12-01T20:34:51.059Z,101.43
2022-12-01T20:37:18.146Z,103.37
2022-12-01T20:39:45.036Z,101.83
2022-12-01T20:42:11.949Z,98.03
2022-12-01T20:44:39.687Z,96.70
2022-12-01T20:47:06.276Z,94.23
2022-12-01T20:49:33.622Z,100.23
2022-12-01T20:52:00.600Z,104.33
2022-12-01T20:54:29.236Z,100.87
2022-12-01T20:56:57.831Z,93.47
2022-12-01T20:59:24.845Z,94.03
2022-12-01T21:01:51.760Z,96.03
2022-12-01T21:04:18.832Z,97.70
2022-12-01T21:06:46.632Z,100.23
2022-12-01T21:09:14.195Z,98.07
2022-12-01T21:12:03.484Z,92.77
2022-12-01T21:14:35.576Z,96.77
2022-12-01T21:17:09.299Z,94.73
2022-12-01T21:19:44.151Z,97.80
2022-12-01T21:22:12.158Z,89.60
2022-12-01T21:24:48.495Z,107.63
2022-12-01T21:27:17.057Z,92.40
2022-12-01T21:29:45.828Z,92.47
2022-12-01T21:32:15.132Z,112.77
2022-12-01T21:34:43.478Z,98.27
2022-12-01T21:37:18.872Z,92.27
2022-12-01T21:40:06.169Z,89.03
2022-12-01T21:42:32.775Z,93.80
2022-12-01T21:45:01.074Z,110.03
2022-12-01T21:47:29.616Z,87.73
2022-12-01T21:49:58.112Z,100.63
2022-12-01T21:52:29.568Z,100.27
2022-12-01T21:55:00.505Z,91.80
2022-12-01T21:57:41.169Z,97.13
2022-12-01T22:04:02.996Z,95.13
2022-12-01T22:06:35.016Z,102.00
2022-12-01T22:09:22.405Z,91.03
2022-12-01T22:11:58.116Z,91.77
2022-12-01T22:14:28.100Z,93.70
2022-12-01T22:16:58.117Z,102.43
2022-12-01T22:19:41.853Z,96.93
2022-12-01T22:22:23.999Z,106.03
2022-12-01T22:24:53.557Z,93.40
2022-12-01T22:27:28.966Z,100.97
2022-12-01T22:30:02.208Z,88.37
2022-12-01T22:32:43.675Z,87.63
2022-12-01T22:35:33.341Z,94.80
2022-12-01T22:38:14.985Z,87.40
2022-12-01T22:40:51.208Z,85.43
2022-12-01T22:43:29.880Z,98.83
2022-12-01T22:46:21.937Z,94.00
2022-12-01T22:48:51.659Z,94.03
2022-12-01T22:51:47.629Z,92.33
2022-12-01T22:54:27.047Z,82.93
2022-12-01T22:57:01.868Z,83.43
2022-12-01T22:59:33.333Z,83.43
2022-12-01T23:02:01.806Z,92.20
2022-12-01T23:04:31.548Z,95.87
2022-12-01T23:07:09.566Z,100.67
2022-12-01T23:09:39.224Z,97.27
2022-12-01T23:12:21.505Z,91.00
2022-12-01T23:14:50.190Z,91.93
2022-12-01T23:17:21.471Z,90.53
2022-12-01T23:19:49.829Z,90.57
2022-12-01T23:22:16.701Z,98.33
2022-12-01T23:24:43.609Z,105.97
2022-12-01T23:27:10.578Z,89.80
2022-12-01T23:29:38.291Z,92.30
2022-12-01T23:32:05.272Z,88.27
2022-12-01T23:34:32.256Z,89.53
2022-12-01T23:36:59.156Z,88.10
2022-12-01T23:39:31.614Z,91.00
2022-12-01T23:41:59.229Z,88.27
2022-12-01T23:44:35.059Z,90.47
2022-12-01T23:47:02.988Z,89.27
2022-12-01T23:49:32.675Z,100.40
2022-12-01T23:52:01.805Z,81.87
2022-12-01T23:54:30.446Z,92.93
2022-12-01T23:57:02.682Z,96.30
2022-12-01T23:59:31.063Z,92.47
